createdAt,value
2019-05-20T00:02:29.314Z,14.59
2019-05-20T00:05:48.366Z,14.73
2019-05-20T00:08:57.211Z,14.62
2019-05-20T00:12:05.815Z,14.73
2019-05-20T00:15:14.885Z,14.71
2019-05-20T00:18:23.629Z,14.69
2019-05-20T00:21:32.147Z,14.67
2019-05-20T00:24:41.002Z,14.63
2019-05-20T00:27:49.788Z,14.61
2019-05-20T00:30:58.440Z,14.48
2019-05-20T00:34:06.989Z,14.55
2019-05-20T00:37:15.767Z,14.42
2019-05-20T00:40:24.497Z,14.40
2019-05-20T00:43:33.220Z,14.41
2019-05-20T00:46:41.957Z,14.44
2019-05-20T00:49:50.485Z,14.39
2019-05-20T00:53:09.189Z,14.46
2019-05-20T00:56:17.922Z,14.29
2019-05-20T00:59:26.559Z,14.19
2019-05-20T01:02:35.237Z,14.23
2019-05-20T01:05:43.922Z,14.24
2019-05-20T01:08:52.748Z,14.15
2019-05-20T01:12:01.401Z,14.12
2019-05-20T01:15:10.454Z,14.09
2019-05-20T01:18:19.167Z,13.99
2019-05-20T01:21:27.784Z,14.03
2019-05-20T01:24:36.441Z,14.03
2019-05-20T01:27:45.135Z,14.02
2019-05-20T01:30:53.805Z,13.98
2019-05-20T01:34:12.504Z,13.91
2019-05-20T01:37:21.163Z,13.86
2019-05-20T01:40:29.828Z,13.81
2019-05-20T01:43:38.433Z,13.83
2019-05-20T01:46:47.172Z,13.86
2019-05-20T01:49:55.809Z,13.89
2019-05-20T01:53:03.981Z,13.80
2019-05-20T01:56:12.670Z,13.78
2019-05-20T01:59:22.913Z,13.74
2019-05-20T02:02:31.477Z,13.78
2019-05-20T02:05:40.116Z,13.73
2019-05-20T02:08:52.910Z,13.75
2019-05-20T02:12:14.326Z,13.86
2019-05-20T02:15:37.128Z,13.84
2019-05-20T02:18:46.135Z,13.73
2019-05-20T02:21:55.708Z,13.83
2019-05-20T02:25:04.346Z,13.79
2019-05-20T02:28:13.090Z,13.75
2019-05-20T02:31:31.802Z,13.82
2019-05-20T02:34:40.418Z,13.67
2019-05-20T02:37:49.113Z,13.67
2019-05-20T02:40:57.796Z,13.65
2019-05-20T02:44:06.323Z,13.63
2019-05-20T02:47:15.298Z,13.62
2019-05-20T02:50:24.091Z,13.68
2019-05-20T02:53:32.761Z,13.64
2019-05-20T02:56:41.594Z,13.68
2019-05-20T02:59:50.193Z,13.68
2019-05-20T03:02:58.851Z,13.66
2019-05-20T03:06:07.437Z,13.67
2019-05-20T03:09:26.305Z,13.66
2019-05-20T03:12:34.913Z,13.64
2019-05-20T03:15:45.278Z,13.66
2019-05-20T03:18:53.933Z,13.60
2019-05-20T03:22:02.564Z,13.61
2019-05-20T03:25:11.410Z,13.58
2019-05-20T03:28:20.151Z,13.54
2019-05-20T03:31:28.889Z,13.56
2019-05-20T03:34:53.696Z,13.57
2019-05-20T03:37:47.831Z,13.56
2019-05-20T03:40:56.429Z,13.66
2019-05-20T03:44:15.216Z,13.70
2019-05-20T03:47:24.069Z,13.62
2019-05-20T03:50:32.707Z,13.56
2019-05-20T03:53:44.039Z,13.65
2019-05-20T03:56:52.671Z,13.64
2019-05-20T03:59:59.822Z,13.58
2019-05-20T04:03:19.017Z,13.48
2019-05-20T04:06:37.861Z,13.58
2019-05-20T04:09:46.598Z,13.56
2019-05-20T04:12:55.293Z,13.50
2019-05-20T04:16:03.863Z,13.59
2019-05-20T04:19:12.463Z,13.59
2019-05-20T04:22:21.071Z,13.62
2019-05-20T04:25:29.600Z,13.63
2019-05-20T04:28:48.368Z,13.78
2019-05-20T04:31:57.100Z,13.79
2019-05-20T04:35:20.770Z,13.73
2019-05-20T04:38:16.460Z,13.81
2019-05-20T04:41:25.109Z,13.80
2019-05-20T04:44:34.401Z,13.66
2019-05-20T04:47:53.371Z,13.76
2019-05-20T04:51:01.931Z,13.67
2019-05-20T04:54:10.670Z,13.67
2019-05-20T04:57:19.416Z,13.69
2019-05-20T05:00:56.459Z,13.77
2019-05-20T05:04:05.134Z,13.77
2019-05-20T05:07:14.011Z,13.65
2019-05-20T05:10:22.749Z,13.70
2019-05-20T05:13:41.386Z,13.70
2019-05-20T05:16:50.192Z,13.72
2019-05-20T05:19:58.812Z,13.62
2019-05-20T05:23:07.407Z,13.75
2019-05-20T05:26:16.229Z,13.83
2019-05-20T05:29:24.759Z,13.85
2019-05-20T05:32:42.707Z,13.99
2019-05-20T05:36:01.468Z,14.06
2019-05-20T05:39:10.592Z,14.09
2019-05-20T05:42:30.148Z,14.26
2019-05-20T05:45:39.529Z,14.25
2019-05-20T05:48:58.408Z,14.32
2019-05-20T05:52:07.070Z,14.19
2019-05-20T05:55:15.691Z,14.24
2019-05-20T05:58:24.359Z,14.26
2019-05-20T06:01:32.958Z,14.29
2019-05-20T06:04:41.630Z,14.41
2019-05-20T06:07:52.038Z,14.37
2019-05-20T06:11:00.720Z,14.48
2019-05-20T06:14:10.129Z,14.59
2019-05-20T06:17:18.778Z,14.61
2019-05-20T06:20:27.389Z,14.58
2019-05-20T06:23:36.135Z,14.70
2019-05-20T06:26:44.774Z,14.80
2019-05-20T06:29:53.642Z,14.85
2019-05-20T06:33:04.639Z,14.81
2019-05-20T06:36:26.027Z,14.80
2019-05-20T06:39:23.773Z,14.75
2019-05-20T06:42:33.639Z,14.88
2019-05-20T06:45:42.311Z,14.86
2019-05-20T06:48:50.978Z,14.88
2019-05-20T06:52:00.940Z,14.86
2019-05-20T06:55:10.363Z,14.88
2019-05-20T06:58:23.204Z,14.94
2019-05-20T07:01:31.859Z,14.98
2019-05-20T07:04:41.649Z,14.99
2019-05-20T07:07:50.326Z,15.11
2019-05-20T07:10:58.972Z,15.16
2019-05-20T07:14:08.070Z,15.15
2019-05-20T07:17:17.853Z,15.29
2019-05-20T07:20:37.063Z,15.51
2019-05-20T07:23:52.318Z,15.53
2019-05-20T07:27:00.675Z,15.62
2019-05-20T07:30:15.512Z,15.66
2019-05-20T07:33:33.958Z,15.87
2019-05-20T07:36:42.531Z,15.96
2019-05-20T07:39:51.764Z,16.09
2019-05-20T07:43:10.743Z,16.09
2019-05-20T07:46:19.956Z,16.04
2019-05-20T07:49:39.965Z,16.05
2019-05-20T07:52:50.058Z,16.02
2019-05-20T07:56:16.870Z,16.04
2019-05-20T07:59:27.143Z,16.22
2019-05-20T08:02:36.568Z,16.36
2019-05-20T08:05:55.750Z,16.56
2019-05-20T08:09:15.392Z,16.66
2019-05-20T08:12:39.904Z,16.71
2019-05-20T08:15:49.407Z,16.60
2019-05-20T08:18:59.749Z,16.63
2019-05-20T08:22:19.535Z,16.56
2019-05-20T08:25:28.553Z,16.61
2019-05-20T08:28:47.654Z,16.85
2019-05-20T08:31:56.438Z,16.80
2019-05-20T08:35:07.290Z,16.95
2019-05-20T08:38:22.307Z,17.09
2019-05-20T08:41:41.278Z,17.20
2019-05-20T08:44:54.061Z,17.27
2019-05-20T08:48:04.602Z,17.50
2019-05-20T08:51:12.357Z,17.66
2019-05-20T08:54:23.932Z,17.88
2019-05-20T08:57:33.066Z,18.03
2019-05-20T09:00:44.829Z,18.15
2019-05-20T09:03:53.472Z,18.32
2019-05-20T09:07:03.866Z,18.43
2019-05-20T09:10:13.092Z,18.38
2019-05-20T09:13:21.730Z,18.39
2019-05-20T09:16:32.716Z,18.25
2019-05-20T09:19:41.475Z,18.36
2019-05-20T09:22:50.162Z,18.36
2019-05-20T09:25:58.935Z,18.28
2019-05-20T09:29:11.311Z,18.48
2019-05-20T09:32:18.284Z,18.65
2019-05-20T09:35:27.013Z,18.86
2019-05-20T09:38:37.027Z,19.00
2019-05-20T09:41:47.962Z,18.90
2019-05-20T09:44:57.407Z,18.86
2019-05-20T09:48:16.154Z,19.02
2019-05-20T09:51:35.065Z,19.00
2019-05-20T09:54:45.688Z,19.14
2019-05-20T09:57:54.078Z,19.38
2019-05-20T10:01:03.922Z,19.44
2019-05-20T10:04:12.558Z,19.64
2019-05-20T10:07:32.321Z,19.78
2019-05-20T10:10:40.958Z,19.94
2019-05-20T10:13:49.660Z,20.11
2019-05-20T10:16:58.388Z,20.32
2019-05-20T10:20:05.810Z,20.35
2019-05-20T10:23:15.941Z,20.26
2019-05-20T10:26:25.041Z,20.08
2019-05-20T10:29:33.686Z,20.16
2019-05-20T10:32:41.022Z,20.33
2019-05-20T10:35:49.715Z,20.27
2019-05-20T10:38:59.633Z,20.28
2019-05-20T10:42:18.639Z,20.35
2019-05-20T10:45:25.797Z,20.37
2019-05-20T10:48:37.140Z,20.36
2019-05-20T10:51:50.982Z,20.31
2019-05-20T10:55:01.030Z,20.49
2019-05-20T10:58:09.794Z,20.49
2019-05-20T11:01:18.746Z,20.66
2019-05-20T11:04:27.837Z,20.82
2019-05-20T11:07:36.846Z,20.93
2019-05-20T11:10:45.423Z,20.86
2019-05-20T11:13:54.073Z,20.76
2019-05-20T11:17:02.825Z,20.97
2019-05-20T11:20:10.989Z,20.81
2019-05-20T11:23:29.870Z,21.11
2019-05-20T11:26:38.593Z,21.23
2019-05-20T11:29:47.266Z,21.25
2019-05-20T11:32:56.034Z,21.31
2019-05-20T11:36:04.633Z,21.26
2019-05-20T11:39:29.254Z,21.23
2019-05-20T11:42:23.794Z,21.29
2019-05-20T11:45:32.421Z,21.02
2019-05-20T11:48:42.826Z,21.00
2019-05-20T11:51:51.451Z,21.15
2019-05-20T11:55:00.118Z,21.19
2019-05-20T11:58:15.603Z,21.28
2019-05-20T12:01:19.516Z,21.38
2019-05-20T12:04:28.366Z,21.39
2019-05-20T12:07:37.187Z,21.47
2019-05-20T12:10:45.950Z,21.61
2019-05-20T12:13:54.656Z,21.80
2019-05-20T12:17:04.845Z,21.74
2019-05-20T12:20:23.657Z,21.78
2019-05-20T12:23:32.313Z,21.74
2019-05-20T12:26:40.869Z,21.87
2019-05-20T12:29:49.485Z,21.89
2019-05-20T12:33:17.006Z,22.10
2019-05-20T12:36:08.386Z,22.56
2019-05-20T12:39:17.047Z,23.27
2019-05-20T12:42:25.987Z,23.85
2019-05-20T12:45:34.703Z,24.49
2019-05-20T12:48:43.612Z,24.31
2019-05-20T12:51:53.784Z,23.75
2019-05-20T12:55:12.978Z,23.72
2019-05-20T12:58:21.399Z,24.22
2019-05-20T13:01:30.232Z,24.54
2019-05-20T13:04:38.885Z,24.71
2019-05-20T13:07:47.567Z,24.94
2019-05-20T13:10:56.278Z,24.67
2019-05-20T13:14:04.809Z,24.60
2019-05-20T13:17:13.428Z,24.59
2019-05-20T13:20:22.644Z,24.06
2019-05-20T13:23:31.346Z,24.07
2019-05-20T13:26:40.060Z,24.16
2019-05-20T13:29:52.429Z,24.08
2019-05-20T13:33:01.172Z,24.36
2019-05-20T13:36:09.872Z,24.00
2019-05-20T13:39:18.824Z,24.14
2019-05-20T13:42:27.351Z,23.92
2019-05-20T13:45:36.170Z,23.62
2019-05-20T13:48:45.076Z,23.50
2019-05-20T13:51:53.819Z,23.59
2019-05-20T13:55:02.700Z,23.65
2019-05-20T13:58:11.769Z,23.54
2019-05-20T14:01:20.395Z,23.59
2019-05-20T14:04:29.099Z,23.57
2019-05-20T14:07:37.808Z,23.43
2019-05-20T14:11:01.252Z,23.52
2019-05-20T14:13:56.844Z,23.40
2019-05-20T14:17:05.373Z,23.28
2019-05-20T14:20:14.719Z,23.33
2019-05-20T14:23:23.299Z,23.35
2019-05-20T14:26:33.933Z,23.29
2019-05-20T14:29:42.623Z,23.25
2019-05-20T14:32:51.226Z,23.33
2019-05-20T14:35:59.772Z,23.40
2019-05-20T14:39:08.994Z,23.45
2019-05-20T14:42:17.704Z,23.37
2019-05-20T14:45:27.043Z,23.35
2019-05-20T14:48:35.994Z,23.16
2019-05-20T14:51:55.158Z,23.17
2019-05-20T14:55:03.792Z,23.05
2019-05-20T14:58:12.429Z,23.14
2019-05-20T15:01:22.327Z,23.22
2019-05-20T15:04:32.178Z,23.23
2019-05-20T15:07:51.195Z,23.22
2019-05-20T15:10:59.827Z,23.27
2019-05-20T15:14:08.554Z,23.26
2019-05-20T15:17:17.234Z,23.30
2019-05-20T15:20:25.915Z,23.28
2019-05-20T15:23:34.584Z,23.10
2019-05-20T15:26:43.385Z,23.03
2019-05-20T15:29:52.267Z,23.02
2019-05-20T15:33:00.825Z,23.01
2019-05-20T15:36:12.011Z,22.82
2019-05-20T15:39:20.698Z,22.83
2019-05-20T15:42:29.338Z,22.93
2019-05-20T15:45:37.999Z,23.06
2019-05-20T15:48:46.662Z,23.01
2019-05-20T15:51:55.494Z,22.99
2019-05-20T15:55:04.359Z,23.07
2019-05-20T15:58:13.110Z,23.00
2019-05-20T16:01:21.769Z,22.93
2019-05-20T16:04:30.461Z,22.87
2019-05-20T16:07:39.069Z,22.84
2019-05-20T16:10:47.733Z,22.69
2019-05-20T16:14:06.611Z,22.76
2019-05-20T16:17:15.245Z,22.61
2019-05-20T16:20:23.963Z,22.50
2019-05-20T16:23:32.583Z,22.47
2019-05-20T16:26:41.392Z,22.44
2019-05-20T16:30:05.535Z,22.40
2019-05-20T16:33:00.455Z,22.46
2019-05-20T16:36:09.505Z,22.42
2019-05-20T16:39:18.245Z,22.45
2019-05-20T16:42:26.634Z,22.49
2019-05-20T16:45:36.101Z,22.55
2019-05-20T16:48:44.768Z,22.53
2019-05-20T16:51:53.479Z,22.55
2019-05-20T16:55:02.208Z,22.59
2019-05-20T16:58:12.434Z,22.54
2019-05-20T17:01:19.562Z,22.49
2019-05-20T17:04:28.172Z,22.48
2019-05-20T17:07:36.804Z,22.47
2019-05-20T17:10:45.438Z,22.39
2019-05-20T17:14:04.312Z,22.49
2019-05-20T17:17:13.190Z,22.42
2019-05-20T17:20:21.766Z,22.41
2019-05-20T17:23:28.832Z,22.29
2019-05-20T17:26:37.466Z,22.14
2019-05-20T17:29:47.591Z,22.14
2019-05-20T17:32:56.102Z,22.11
2019-05-20T17:36:14.771Z,22.15
2019-05-20T17:39:23.482Z,22.07
2019-05-20T17:42:32.193Z,21.95
2019-05-20T17:45:41.106Z,21.92
2019-05-20T17:48:49.805Z,21.86
2019-05-20T17:51:58.438Z,21.89
2019-05-20T17:55:07.819Z,21.92
2019-05-20T17:58:16.333Z,22.00
2019-05-20T18:01:25.059Z,21.99
2019-05-20T18:04:33.664Z,21.93
2019-05-20T18:07:42.284Z,21.94
2019-05-20T18:10:50.926Z,21.91
2019-05-20T18:13:59.639Z,21.84
2019-05-20T18:17:08.592Z,21.79
2019-05-20T18:20:17.250Z,21.78
2019-05-20T18:23:25.872Z,21.78
2019-05-20T18:26:34.566Z,21.74
2019-05-20T18:29:53.283Z,21.73
2019-05-20T18:33:01.916Z,21.62
2019-05-20T18:36:10.756Z,21.58
2019-05-20T18:39:19.531Z,21.60
2019-05-20T18:42:28.136Z,21.47
2019-05-20T18:45:36.742Z,21.42
2019-05-20T18:48:45.377Z,21.30
2019-05-20T18:51:53.899Z,21.32
2019-05-20T18:55:12.705Z,21.29
2019-05-20T18:58:21.332Z,21.21
2019-05-20T19:01:30.013Z,21.16
2019-05-20T19:04:38.515Z,21.08
2019-05-20T19:07:47.296Z,20.99
2019-05-20T19:10:56.083Z,20.97
2019-05-20T19:14:08.166Z,20.96
2019-05-20T19:17:15.371Z,20.82
2019-05-20T19:20:24.088Z,20.79
2019-05-20T19:23:32.681Z,20.72
2019-05-20T19:26:41.306Z,20.73
2019-05-20T19:29:49.923Z,20.69
2019-05-20T19:33:08.764Z,20.65
2019-05-20T19:36:17.397Z,20.64
2019-05-20T19:39:26.010Z,20.58
2019-05-20T19:42:34.609Z,20.48
2019-05-20T19:45:43.130Z,20.42
2019-05-20T19:48:51.634Z,20.42
2019-05-20T19:52:11.678Z,20.44
2019-05-20T19:55:20.308Z,20.43
2019-05-20T19:58:28.964Z,20.33
2019-05-20T20:01:37.760Z,20.28
2019-05-20T20:04:46.399Z,20.25
2019-05-20T20:07:55.113Z,20.19
2019-05-20T20:11:03.925Z,20.19
2019-05-20T20:14:12.522Z,20.20
2019-05-20T20:17:31.504Z,20.19
2019-05-20T20:20:40.123Z,20.09
2019-05-20T20:23:48.759Z,20.08
2019-05-20T20:26:57.473Z,20.02
2019-05-20T20:30:07.613Z,20.01
2019-05-20T20:33:16.165Z,19.97
2019-05-20T20:36:24.869Z,19.97
2019-05-20T20:39:34.400Z,19.94
2019-05-20T20:42:42.813Z,19.87
2019-05-20T20:45:51.468Z,19.86
2019-05-20T20:49:00.157Z,19.84
2019-05-20T20:52:09.029Z,19.83
2019-05-20T20:55:17.659Z,19.86
2019-05-20T20:58:26.349Z,19.88
2019-05-20T21:01:45.190Z,19.88
2019-05-20T21:04:52.772Z,19.82
2019-05-20T21:08:12.714Z,19.87
2019-05-20T21:11:21.421Z,19.73
2019-05-20T21:14:30.077Z,19.72
2019-05-20T21:17:38.776Z,19.68
2019-05-20T21:20:47.296Z,19.68
2019-05-20T21:24:06.116Z,19.68
2019-05-20T21:27:14.835Z,19.60
2019-05-20T21:30:23.440Z,19.62
2019-05-20T21:33:32.052Z,19.63
2019-05-20T21:36:47.831Z,19.60
2019-05-20T21:39:51.037Z,19.57
2019-05-20T21:42:59.659Z,19.55
2019-05-20T21:46:08.313Z,19.49
2019-05-20T21:49:27.015Z,19.42
2019-05-20T21:52:35.644Z,19.41
2019-05-20T21:55:44.135Z,19.38
2019-05-20T21:58:52.803Z,19.37
2019-05-20T22:02:01.411Z,19.29
2019-05-20T22:05:10.426Z,19.30
2019-05-20T22:08:19.087Z,19.19
2019-05-20T22:11:27.686Z,19.13
2019-05-20T22:14:46.342Z,19.14
2019-05-20T22:17:55.084Z,19.08
2019-05-20T22:21:06.322Z,19.03
2019-05-20T22:24:14.952Z,19.05
2019-05-20T22:27:23.738Z,19.12
2019-05-20T22:30:32.422Z,19.06
2019-05-20T22:33:51.383Z,19.13
2019-05-20T22:36:59.904Z,19.04
2019-05-20T22:40:09.659Z,18.99
2019-05-20T22:43:18.161Z,18.96
2019-05-20T22:46:36.965Z,18.96
2019-05-20T22:49:45.632Z,18.90
2019-05-20T22:52:54.312Z,18.89
2019-05-20T22:56:02.981Z,18.84
2019-05-20T22:59:11.692Z,18.82
2019-05-20T23:02:20.285Z,18.74
2019-05-20T23:05:28.906Z,18.80
2019-05-20T23:08:37.612Z,18.73
2019-05-20T23:11:56.221Z,18.70
2019-05-20T23:15:05.092Z,18.57
2019-05-20T23:18:13.865Z,18.51
2019-05-20T23:21:21.165Z,18.49
2019-05-20T23:24:29.808Z,18.42
2019-05-20T23:27:50.359Z,18.51
2019-05-20T23:30:59.141Z,18.36
2019-05-20T23:34:12.747Z,18.33
2019-05-20T23:37:18.209Z,18.32
2019-05-20T23:40:26.823Z,18.23
2019-05-20T23:43:35.590Z,18.22
2019-05-20T23:46:45.013Z,18.14
2019-05-20T23:49:53.616Z,18.15
2019-05-20T23:53:02.298Z,18.05
2019-05-20T23:56:11.107Z,18.13
2019-05-20T23:59:19.647Z,18.13
